Terminal Aerodrome Forecast
Issued by NWS

Home | Current Version | Previous Version | Text Only | Print | Product List | Glossary On
Versions: 1 2 3 4 5 6 7 8 9 10 11 12 13
000
FTUS42 TJSJ 222300 RRA
TAFJMZ
TAF
TJMZ 222342Z 2300/2324 VRB05KT P6SM FEW025 SCT060
     FM231630 27010KT P6SM VCSH SCT025 BKN040
      AMD NOT SKED TIL 231100=

USA.gov is the U.S. government's official web portal to all federal, state and local government web resources and services.